sensor_id;sensor_type;location;lat;lon;timestamp;pressure;altitude;pressure_sealevel;temperature;humidity
52719;BME280;38616;42.140;24.760;2024-01-11T00:01:47;100835.00;;;-0.38;nan
52719;BME280;38616;42.140;24.760;2024-01-11T00:04:13;100832.91;;;-0.27;nan
52719;BME280;38616;42.140;24.760;2024-01-11T00:06:44;100832.69;;;-0.18;nan
52719;BME280;38616;42.140;24.760;2024-01-11T00:09:10;100832.16;;;-0.36;nan
52719;BME280;38616;42.140;24.760;2024-01-11T00:11:36;100822.28;;;-0.36;nan
52719;BME280;38616;42.140;24.760;2024-01-11T00:14:02;100825.09;;;-0.29;nan
52719;BME280;38616;42.140;24.760;2024-01-11T00:16:28;100826.94;;;-0.30;nan
52719;BME280;38616;42.140;24.760;2024-01-11T00:18:53;100827.59;;;-0.51;nan
52719;BME280;38616;42.140;24.760;2024-01-11T00:21:19;100824.91;;;-0.51;nan
52719;BME280;38616;42.140;24.760;2024-01-11T00:23:44;100821.53;;;-0.45;nan
52719;BME280;38616;42.140;24.760;2024-01-11T00:26:12;100815.72;;;-0.25;nan
52719;BME280;38616;42.140;24.760;2024-01-11T00:28:38;100818.84;;;-0.21;nan
52719;BME280;38616;42.140;24.760;2024-01-11T00:31:04;100808.47;;;-0.39;nan
52719;BME280;38616;42.140;24.760;2024-01-11T00:33:30;100811.44;;;-0.34;nan
52719;BME280;38616;42.140;24.760;2024-01-11T00:35:55;100804.66;;;-0.68;nan
52719;BME280;38616;42.140;24.760;2024-01-11T00:38:21;100800.81;;;-0.66;nan
52719;BME280;38616;42.140;24.760;2024-01-11T00:40:46;100802.25;;;-0.55;nan
52719;BME280;38616;42.140;24.760;2024-01-11T00:43:11;100795.13;;;-0.63;nan
52719;BME280;38616;42.140;24.760;2024-01-11T00:45:37;100791.50;;;-0.47;nan
52719;BME280;38616;42.140;24.760;2024-01-11T00:48:03;100789.44;;;-0.36;nan
52719;BME280;38616;42.140;24.760;2024-01-11T00:50:29;100780.53;;;-0.28;nan
52719;BME280;38616;42.140;24.760;2024-01-11T00:52:55;100781.03;;;-0.48;nan
52719;BME280;38616;42.140;24.760;2024-01-11T00:55:20;100777.19;;;-0.31;nan
52719;BME280;38616;42.140;24.760;2024-01-11T00:57:46;100764.19;;;-0.10;nan
52719;BME280;38616;42.140;24.760;2024-01-11T01:00:12;100772.41;;;-0.35;nan
52719;BME280;38616;42.140;24.760;2024-01-11T01:02:40;100772.06;;;-0.17;nan
52719;BME280;38616;42.140;24.760;2024-01-11T01:05:06;100762.41;;;-0.18;nan
52719;BME280;38616;42.140;24.760;2024-01-11T01:07:32;100758.91;;;-0.19;nan
52719;BME280;38616;42.140;24.760;2024-01-11T01:09:57;100770.25;;;-0.17;nan
52719;BME280;38616;42.140;24.760;2024-01-11T01:12:23;100750.19;;;-0.12;nan
52719;BME280;38616;42.140;24.760;2024-01-11T01:14:50;100747.06;;;-0.01;nan
52719;BME280;38616;42.140;24.760;2024-01-11T01:17:16;100743.28;;;0.08;nan
52719;BME280;38616;42.140;24.760;2024-01-11T01:19:41;100749.28;;;0.10;nan
52719;BME280;38616;42.140;24.760;2024-01-11T01:22:07;100739.59;;;0.09;nan
52719;BME280;38616;42.140;24.760;2024-01-11T01:24:32;100737.84;;;0.02;nan
52719;BME280;38616;42.140;24.760;2024-01-11T01:26:58;100737.13;;;-0.07;nan
52719;BME280;38616;42.140;24.760;2024-01-11T01:29:24;100733.88;;;-0.18;nan
52719;BME280;38616;42.140;24.760;2024-01-11T01:31:50;100734.09;;;-0.04;nan
52719;BME280;38616;42.140;24.760;2024-01-11T01:34:16;100731.28;;;0.04;nan
52719;BME280;38616;42.140;24.760;2024-01-11T01:36:41;100721.38;;;-0.02;nan
52719;BME280;38616;42.140;24.760;2024-01-11T01:39:07;100724.69;;;0.15;nan
52719;BME280;38616;42.140;24.760;2024-01-11T01:41:33;100718.03;;;0.26;nan
52719;BME280;38616;42.140;24.760;2024-01-11T01:43:58;100719.06;;;0.10;nan
52719;BME280;38616;42.140;24.760;2024-01-11T01:46:24;100714.72;;;-0.06;nan
52719;BME280;38616;42.140;24.760;2024-01-11T01:48:56;100718.78;;;-0.10;nan
52719;BME280;38616;42.140;24.760;2024-01-11T01:51:23;100716.47;;;-0.13;nan
52719;BME280;38616;42.140;24.760;2024-01-11T01:53:52;100711.84;;;-0.20;nan
52719;BME280;38616;42.140;24.760;2024-01-11T01:56:19;100704.66;;;-0.19;nan
52719;BME280;38616;42.140;24.760;2024-01-11T01:58:45;100705.88;;;-0.07;nan
52719;BME280;38616;42.140;24.760;2024-01-11T02:01:12;100704.50;;;-0.03;nan
52719;BME280;38616;42.140;24.760;2024-01-11T02:03:38;100706.16;;;-0.02;nan
52719;BME280;38616;42.140;24.760;2024-01-11T02:06:05;100690.19;;;0.05;nan
52719;BME280;38616;42.140;24.760;2024-01-11T02:08:31;100695.09;;;-0.13;nan
52719;BME280;38616;42.140;24.760;2024-01-11T02:10:59;100695.06;;;-0.28;nan
52719;BME280;38616;42.140;24.760;2024-01-11T02:13:25;100693.84;;;-0.41;nan
52719;BME280;38616;42.140;24.760;2024-01-11T02:15:50;100687.59;;;-0.33;nan
52719;BME280;38616;42.140;24.760;2024-01-11T02:18:16;100689.72;;;-0.28;nan
52719;BME280;38616;42.140;24.760;2024-01-11T02:20:42;100684.94;;;-0.33;nan
52719;BME280;38616;42.140;24.760;2024-01-11T02:23:12;100682.63;;;-0.36;nan
52719;BME280;38616;42.140;24.760;2024-01-11T02:25:40;100683.91;;;-0.32;nan
52719;BME280;38616;42.140;24.760;2024-01-11T02:28:05;100675.34;;;-0.42;nan
52719;BME280;38616;42.140;24.760;2024-01-11T02:30:31;100690.97;;;-0.78;nan
52719;BME280;38616;42.140;24.760;2024-01-11T02:32:59;100679.97;;;-0.36;nan
52719;BME280;38616;42.140;24.760;2024-01-11T02:35:25;100678.38;;;-0.46;nan
52719;BME280;38616;42.140;24.760;2024-01-11T02:37:51;100677.63;;;-0.54;nan
52719;BME280;38616;42.140;24.760;2024-01-11T02:40:18;100685.88;;;-0.64;nan
52719;BME280;38616;42.140;24.760;2024-01-11T02:42:44;100682.53;;;-0.66;nan
52719;BME280;38616;42.140;24.760;2024-01-11T02:45:11;100682.03;;;-0.62;nan
52719;BME280;38616;42.140;24.760;2024-01-11T02:47:38;100682.09;;;-0.70;nan
52719;BME280;38616;42.140;24.760;2024-01-11T02:50:03;100677.88;;;-1.11;nan
52719;BME280;38616;42.140;24.760;2024-01-11T02:52:29;100680.28;;;-1.24;nan
52719;BME280;38616;42.140;24.760;2024-01-11T02:54:54;100684.94;;;-0.95;nan
52719;BME280;38616;42.140;24.760;2024-01-11T02:57:20;100686.69;;;-1.10;nan
52719;BME280;38616;42.140;24.760;2024-01-11T02:59:45;100678.38;;;-1.15;nan
52719;BME280;38616;42.140;24.760;2024-01-11T03:02:11;100681.84;;;-1.07;nan
52719;BME280;38616;42.140;24.760;2024-01-11T03:04:38;100689.72;;;-1.45;nan
52719;BME280;38616;42.140;24.760;2024-01-11T03:07:04;100681.75;;;-1.53;nan
52719;BME280;38616;42.140;24.760;2024-01-11T03:09:29;100679.91;;;-1.44;nan
52719;BME280;38616;42.140;24.760;2024-01-11T03:11:55;100680.72;;;-1.44;nan
52719;BME280;38616;42.140;24.760;2024-01-11T03:14:20;100667.75;;;-1.47;nan
52719;BME280;38616;42.140;24.760;2024-01-11T03:16:46;100675.03;;;-1.41;nan
52719;BME280;38616;42.140;24.760;2024-01-11T03:19:11;100664.00;;;-1.29;nan
52719;BME280;38616;42.140;24.760;2024-01-11T03:21:44;100665.34;;;-1.10;nan
52719;BME280;38616;42.140;24.760;2024-01-11T03:24:09;100666.66;;;-1.06;nan
52719;BME280;38616;42.140;24.760;2024-01-11T03:26:35;100672.13;;;-0.76;nan
52719;BME280;38616;42.140;24.760;2024-01-11T03:29:01;100668.88;;;-0.86;nan
52719;BME280;38616;42.140;24.760;2024-01-11T03:31:27;100662.13;;;-0.97;nan
52719;BME280;38616;42.140;24.760;2024-01-11T03:33:52;100660.66;;;-0.85;nan
52719;BME280;38616;42.140;24.760;2024-01-11T03:36:18;100665.47;;;-0.80;nan
52719;BME280;38616;42.140;24.760;2024-01-11T03:38:48;100668.47;;;-0.98;nan
52719;BME280;38616;42.140;24.760;2024-01-11T03:41:13;100665.44;;;-0.95;nan
52719;BME280;38616;42.140;24.760;2024-01-11T03:43:39;100660.56;;;-0.92;nan
52719;BME280;38616;42.140;24.760;2024-01-11T03:46:05;100651.16;;;-0.64;nan
52719;BME280;38616;42.140;24.760;2024-01-11T03:48:30;100661.22;;;-0.90;nan
52719;BME280;38616;42.140;24.760;2024-01-11T03:50:56;100662.78;;;-0.95;nan
52719;BME280;38616;42.140;24.760;2024-01-11T03:53:22;100657.13;;;-1.00;nan
52719;BME280;38616;42.140;24.760;2024-01-11T03:55:49;100648.63;;;-1.27;nan
52719;BME280;38616;42.140;24.760;2024-01-11T03:58:15;100654.16;;;-1.06;nan
52719;BME280;38616;42.140;24.760;2024-01-11T04:00:40;100644.75;;;-0.93;nan
52719;BME280;38616;42.140;24.760;2024-01-11T04:03:06;100648.09;;;-1.23;nan
52719;BME280;38616;42.140;24.760;2024-01-11T04:05:32;100638.31;;;-1.30;nan
52719;BME280;38616;42.140;24.760;2024-01-11T04:07:57;100642.41;;;-1.20;nan
52719;BME280;38616;42.140;24.760;2024-01-11T04:10:23;100637.16;;;-1.05;nan
52719;BME280;38616;42.140;24.760;2024-01-11T04:12:48;100630.97;;;-1.05;nan
52719;BME280;38616;42.140;24.760;2024-01-11T04:15:14;100630.97;;;-1.28;nan
52719;BME280;38616;42.140;24.760;2024-01-11T04:17:40;100623.59;;;-1.18;nan
52719;BME280;38616;42.140;24.760;2024-01-11T04:20:07;100623.53;;;-1.10;nan
52719;BME280;38616;42.140;24.760;2024-01-11T04:22:33;100620.41;;;-0.75;nan
52719;BME280;38616;42.140;24.760;2024-01-11T04:24:59;100621.41;;;-0.76;nan
52719;BME280;38616;42.140;24.760;2024-01-11T04:27:24;100621.22;;;-0.75;nan
52719;BME280;38616;42.140;24.760;2024-01-11T04:29:53;100621.16;;;-0.66;nan
52719;BME280;38616;42.140;24.760;2024-01-11T04:32:18;100623.59;;;-0.56;nan
52719;BME280;38616;42.140;24.760;2024-01-11T04:34:44;100627.34;;;-0.51;nan
52719;BME280;38616;42.140;24.760;2024-01-11T04:37:09;100623.00;;;-0.67;nan
52719;BME280;38616;42.140;24.760;2024-01-11T04:39:35;100629.44;;;-0.61;nan
52719;BME280;38616;42.140;24.760;2024-01-11T04:42:01;100624.31;;;-0.63;nan
52719;BME280;38616;42.140;24.760;2024-01-11T04:44:27;100628.81;;;-0.63;nan
52719;BME280;38616;42.140;24.760;2024-01-11T04:46:52;100621.88;;;-0.72;nan
52719;BME280;38616;42.140;24.760;2024-01-11T04:49:18;100623.25;;;-0.77;nan
52719;BME280;38616;42.140;24.760;2024-01-11T04:51:43;100618.69;;;-0.68;nan
52719;BME280;38616;42.140;24.760;2024-01-11T04:54:09;100617.72;;;-0.90;nan
52719;BME280;38616;42.140;24.760;2024-01-11T04:56:34;100615.59;;;-0.80;nan
52719;BME280;38616;42.140;24.760;2024-01-11T04:59:00;100610.25;;;-0.80;nan
52719;BME280;38616;42.140;24.760;2024-01-11T05:01:25;100615.66;;;-0.88;nan
52719;BME280;38616;42.140;24.760;2024-01-11T05:03:51;100611.97;;;-1.25;nan
52719;BME280;38616;42.140;24.760;2024-01-11T05:06:21;100614.34;;;-1.94;nan
52719;BME280;38616;42.140;24.760;2024-01-11T05:08:48;100618.88;;;-2.11;nan
52719;BME280;38616;42.140;24.760;2024-01-11T05:11:24;100611.19;;;-2.62;nan
52719;BME280;38616;42.140;24.760;2024-01-11T05:13:50;100614.56;;;-2.85;nan
52719;BME280;38616;42.140;24.760;2024-01-11T05:16:27;100619.19;;;-3.03;nan
52719;BME280;38616;42.140;24.760;2024-01-11T05:18:54;100610.41;;;-3.12;nan
52719;BME280;38616;42.140;24.760;2024-01-11T05:21:20;100609.22;;;-3.18;nan
52719;BME280;38616;42.140;24.760;2024-01-11T05:23:46;100611.41;;;-3.13;nan
52719;BME280;38616;42.140;24.760;2024-01-11T05:26:13;100609.75;;;-3.14;nan
52719;BME280;38616;42.140;24.760;2024-01-11T05:28:39;100611.88;;;-3.18;nan
52719;BME280;38616;42.140;24.760;2024-01-11T05:31:07;100607.88;;;-3.30;nan
52719;BME280;38616;42.140;24.760;2024-01-11T05:33:33;100599.91;;;-3.14;nan
52719;BME280;38616;42.140;24.760;2024-01-11T05:35:59;100604.97;;;-2.21;nan
52719;BME280;38616;42.140;24.760;2024-01-11T05:38:24;100601.25;;;-2.76;nan
52719;BME280;38616;42.140;24.760;2024-01-11T05:40:50;100598.94;;;-3.04;nan
52719;BME280;38616;42.140;24.760;2024-01-11T05:43:15;100598.91;;;-3.21;nan
52719;BME280;38616;42.140;24.760;2024-01-11T05:45:41;100594.44;;;-3.20;nan
52719;BME280;38616;42.140;24.760;2024-01-11T05:48:06;100588.63;;;-3.24;nan
52719;BME280;38616;42.140;24.760;2024-01-11T05:50:32;100594.78;;;-3.23;nan
52719;BME280;38616;42.140;24.760;2024-01-11T05:52:57;100591.25;;;-3.32;nan
52719;BME280;38616;42.140;24.760;2024-01-11T05:55:23;100593.56;;;-3.37;nan
52719;BME280;38616;42.140;24.760;2024-01-11T05:57:48;100590.78;;;-3.36;nan
52719;BME280;38616;42.140;24.760;2024-01-11T06:00:14;100581.47;;;-2.82;nan
52719;BME280;38616;42.140;24.760;2024-01-11T06:02:40;100588.63;;;-2.18;nan
52719;BME280;38616;42.140;24.760;2024-01-11T06:05:08;100590.31;;;-1.77;nan
52719;BME280;38616;42.140;24.760;2024-01-11T06:07:35;100586.34;;;-1.58;nan
52719;BME280;38616;42.140;24.760;2024-01-11T06:10:00;100587.63;;;-1.45;nan
52719;BME280;38616;42.140;24.760;2024-01-11T06:12:28;100580.72;;;-1.16;nan
52719;BME280;38616;42.140;24.760;2024-01-11T06:14:54;100579.72;;;-1.15;nan
52719;BME280;38616;42.140;24.760;2024-01-11T06:17:19;100573.31;;;-1.06;nan
52719;BME280;38616;42.140;24.760;2024-01-11T06:19:45;100574.88;;;-1.12;nan
52719;BME280;38616;42.140;24.760;2024-01-11T06:22:10;100566.75;;;-1.19;nan
52719;BME280;38616;42.140;24.760;2024-01-11T06:24:36;100578.78;;;-0.99;nan
52719;BME280;38616;42.140;24.760;2024-01-11T06:27:02;100560.69;;;-0.74;nan
52719;BME280;38616;42.140;24.760;2024-01-11T06:29:27;100566.09;;;-0.97;nan
52719;BME280;38616;42.140;24.760;2024-01-11T06:31:53;100559.22;;;-1.15;nan
52719;BME280;38616;42.140;24.760;2024-01-11T06:34:19;100568.59;;;-1.42;nan
52719;BME280;38616;42.140;24.760;2024-01-11T06:36:44;100562.84;;;-1.08;nan
52719;BME280;38616;42.140;24.760;2024-01-11T06:39:10;100572.53;;;-0.92;nan
52719;BME280;38616;42.140;24.760;2024-01-11T06:41:35;100565.38;;;-1.14;nan
52719;BME280;38616;42.140;24.760;2024-01-11T06:44:01;100562.78;;;-1.23;nan
52719;BME280;38616;42.140;24.760;2024-01-11T06:46:27;100561.41;;;-0.95;nan
52719;BME280;38616;42.140;24.760;2024-01-11T06:48:52;100559.94;;;-0.83;nan
52719;BME280;38616;42.140;24.760;2024-01-11T06:53:49;100557.03;;;-0.58;nan
52719;BME280;38616;42.140;24.760;2024-01-11T06:56:16;100559.59;;;-0.65;nan
52719;BME280;38616;42.140;24.760;2024-01-11T06:58:43;100561.34;;;-0.72;nan
52719;BME280;38616;42.140;24.760;2024-01-11T07:01:09;100566.97;;;-0.67;nan
52719;BME280;38616;42.140;24.760;2024-01-11T07:03:34;100564.38;;;-0.75;nan
52719;BME280;38616;42.140;24.760;2024-01-11T07:06:00;100557.09;;;-0.66;nan
52719;BME280;38616;42.140;24.760;2024-01-11T07:08:25;100564.88;;;-0.56;nan
52719;BME280;38616;42.140;24.760;2024-01-11T07:10:51;100563.84;;;-0.55;nan
52719;BME280;38616;42.140;24.760;2024-01-11T07:13:16;100563.28;;;-0.51;nan
52719;BME280;38616;42.140;24.760;2024-01-11T07:15:43;100567.53;;;-0.56;nan
52719;BME280;38616;42.140;24.760;2024-01-11T07:18:08;100570.47;;;-0.51;nan
52719;BME280;38616;42.140;24.760;2024-01-11T07:20:34;100562.06;;;-0.78;nan
52719;BME280;38616;42.140;24.760;2024-01-11T07:23:00;100565.97;;;-0.51;nan
52719;BME280;38616;42.140;24.760;2024-01-11T07:25:26;100558.50;;;-0.40;nan
52719;BME280;38616;42.140;24.760;2024-01-11T07:27:51;100557.38;;;-0.61;nan
52719;BME280;38616;42.140;24.760;2024-01-11T07:30:17;100566.13;;;-0.67;nan
52719;BME280;38616;42.140;24.760;2024-01-11T07:32:45;100553.91;;;-0.47;nan
52719;BME280;38616;42.140;24.760;2024-01-11T07:35:11;100557.94;;;-0.66;nan
52719;BME280;38616;42.140;24.760;2024-01-11T07:37:38;100553.69;;;-0.90;nan
52719;BME280;38616;42.140;24.760;2024-01-11T07:40:05;100544.78;;;-0.67;nan
52719;BME280;38616;42.140;24.760;2024-01-11T07:42:35;100543.69;;;-0.58;nan
52719;BME280;38616;42.140;24.760;2024-01-11T07:45:01;100536.16;;;-0.54;nan
52719;BME280;38616;42.140;24.760;2024-01-11T07:47:26;100534.28;;;-0.39;nan
52719;BME280;38616;42.140;24.760;2024-01-11T07:49:52;100525.44;;;-0.09;nan
52719;BME280;38616;42.140;24.760;2024-01-11T07:52:18;100521.06;;;0.05;nan
52719;BME280;38616;42.140;24.760;2024-01-11T07:54:43;100531.88;;;-0.34;nan
52719;BME280;38616;42.140;24.760;2024-01-11T07:57:09;100526.81;;;-0.13;nan
52719;BME280;38616;42.140;24.760;2024-01-11T07:59:34;100528.81;;;-0.01;nan
52719;BME280;38616;42.140;24.760;2024-01-11T08:02:03;100526.44;;;-0.10;nan
52719;BME280;38616;42.140;24.760;2024-01-11T08:04:29;100523.41;;;-0.07;nan
52719;BME280;38616;42.140;24.760;2024-01-11T08:06:54;100530.19;;;-0.05;nan
52719;BME280;38616;42.140;24.760;2024-01-11T08:09:20;100513.94;;;0.12;nan
52719;BME280;38616;42.140;24.760;2024-01-11T08:11:47;100512.06;;;0.27;nan
52719;BME280;38616;42.140;24.760;2024-01-11T08:14:12;100512.19;;;0.41;nan
52719;BME280;38616;42.140;24.760;2024-01-11T08:16:39;100510.16;;;0.06;nan
52719;BME280;38616;42.140;24.760;2024-01-11T08:19:04;100507.53;;;0.28;nan
52719;BME280;38616;42.140;24.760;2024-01-11T08:21:30;100498.50;;;0.51;nan
52719;BME280;38616;42.140;24.760;2024-01-11T08:23:56;100500.53;;;0.49;nan
52719;BME280;38616;42.140;24.760;2024-01-11T08:26:21;100493.91;;;0.44;nan
52719;BME280;38616;42.140;24.760;2024-01-11T08:28:47;100496.28;;;0.33;nan
52719;BME280;38616;42.140;24.760;2024-01-11T08:31:13;100501.56;;;0.48;nan
52719;BME280;38616;42.140;24.760;2024-01-11T08:33:39;100496.78;;;0.43;nan
52719;BME280;38616;42.140;24.760;2024-01-11T08:36:08;100497.31;;;0.32;nan
52719;BME280;38616;42.140;24.760;2024-01-11T08:38:44;100496.91;;;-0.24;nan
52719;BME280;38616;42.140;24.760;2024-01-11T08:41:11;100489.25;;;-0.27;nan
52719;BME280;38616;42.140;24.760;2024-01-11T08:43:36;100483.72;;;0.11;nan
52719;BME280;38616;42.140;24.760;2024-01-11T08:46:02;100479.78;;;0.51;nan
52719;BME280;38616;42.140;24.760;2024-01-11T08:48:28;100477.41;;;0.63;nan
52719;BME280;38616;42.140;24.760;2024-01-11T08:50:54;100475.13;;;0.59;nan
52719;BME280;38616;42.140;24.760;2024-01-11T08:53:19;100465.28;;;0.38;nan
52719;BME280;38616;42.140;24.760;2024-01-11T08:55:45;100468.19;;;0.65;nan
52719;BME280;38616;42.140;24.760;2024-01-11T08:58:10;100455.72;;;0.79;nan
52719;BME280;38616;42.140;24.760;2024-01-11T09:00:37;100455.38;;;0.89;nan
52719;BME280;38616;42.140;24.760;2024-01-11T09:03:03;100442.50;;;0.71;nan
52719;BME280;38616;42.140;24.760;2024-01-11T09:05:31;100446.25;;;0.77;nan
52719;BME280;38616;42.140;24.760;2024-01-11T09:07:57;100436.19;;;0.79;nan
52719;BME280;38616;42.140;24.760;2024-01-11T09:10:22;100441.84;;;0.97;nan
52719;BME280;38616;42.140;24.760;2024-01-11T09:12:48;100426.19;;;0.94;nan
52719;BME280;38616;42.140;24.760;2024-01-11T09:15:16;100419.81;;;1.30;nan
52719;BME280;38616;42.140;24.760;2024-01-11T09:17:42;100419.81;;;1.30;nan
52719;BME280;38616;42.140;24.760;2024-01-11T09:20:08;100409.31;;;1.29;nan
52719;BME280;38616;42.140;24.760;2024-01-11T09:22:34;100415.84;;;1.20;nan
52719;BME280;38616;42.140;24.760;2024-01-11T09:25:00;100411.03;;;1.50;nan
52719;BME280;38616;42.140;24.760;2024-01-11T09:27:25;100404.53;;;1.24;nan
52719;BME280;38616;42.140;24.760;2024-01-11T09:29:53;100409.22;;;1.64;nan
52719;BME280;38616;42.140;24.760;2024-01-11T09:32:18;100402.09;;;1.36;nan
52719;BME280;38616;42.140;24.760;2024-01-11T09:34:45;100392.34;;;1.64;nan
52719;BME280;38616;42.140;24.760;2024-01-11T09:37:11;100393.59;;;1.68;nan
52719;BME280;38616;42.140;24.760;2024-01-11T09:39:36;100386.63;;;1.94;nan
52719;BME280;38616;42.140;24.760;2024-01-11T09:42:08;100374.91;;;2.08;nan
52719;BME280;38616;42.140;24.760;2024-01-11T09:44:38;100364.78;;;2.10;nan
52719;BME280;38616;42.140;24.760;2024-01-11T09:47:06;100363.16;;;2.22;nan
52719;BME280;38616;42.140;24.760;2024-01-11T09:49:33;100357.59;;;2.31;nan
52719;BME280;38616;42.140;24.760;2024-01-11T09:52:01;100357.38;;;2.26;nan
52719;BME280;38616;42.140;24.760;2024-01-11T09:54:27;100350.78;;;2.21;nan
52719;BME280;38616;42.140;24.760;2024-01-11T09:56:54;100342.13;;;2.33;nan
52719;BME280;38616;42.140;24.760;2024-01-11T09:59:20;100328.50;;;2.28;nan
52719;BME280;38616;42.140;24.760;2024-01-11T10:01:49;100330.53;;;2.53;nan
52719;BME280;38616;42.140;24.760;2024-01-11T10:04:15;100322.94;;;2.36;nan
52719;BME280;38616;42.140;24.760;2024-01-11T10:06:41;100317.34;;;2.31;nan
52719;BME280;38616;42.140;24.760;2024-01-11T10:09:07;100317.34;;;2.24;nan
52719;BME280;38616;42.140;24.760;2024-01-11T10:11:33;100316.94;;;2.20;nan
52719;BME280;38616;42.140;24.760;2024-01-11T10:14:00;100323.53;;;2.45;nan
52719;BME280;38616;42.140;24.760;2024-01-11T10:16:27;100303.91;;;2.58;nan
52719;BME280;38616;42.140;24.760;2024-01-11T10:18:54;100291.94;;;2.60;nan
52719;BME280;38616;42.140;24.760;2024-01-11T10:21:23;100293.31;;;2.76;nan
52719;BME280;38616;42.140;24.760;2024-01-11T10:23:49;100290.44;;;2.78;nan
52719;BME280;38616;42.140;24.760;2024-01-11T10:26:18;100283.84;;;2.74;nan
52719;BME280;38616;42.140;24.760;2024-01-11T10:28:47;100275.94;;;2.86;nan
52719;BME280;38616;42.140;24.760;2024-01-11T10:31:13;100280.56;;;2.65;nan
52719;BME280;38616;42.140;24.760;2024-01-11T10:33:42;100270.63;;;2.72;nan
52719;BME280;38616;42.140;24.760;2024-01-11T10:36:08;100267.50;;;2.75;nan
52719;BME280;38616;42.140;24.760;2024-01-11T10:38:36;100258.75;;;3.00;nan
52719;BME280;38616;42.140;24.760;2024-01-11T10:41:05;100256.19;;;3.12;nan
52719;BME280;38616;42.140;24.760;2024-01-11T10:43:31;100249.38;;;3.16;nan
52719;BME280;38616;42.140;24.760;2024-01-11T10:45:59;100250.38;;;3.22;nan
52719;BME280;38616;42.140;24.760;2024-01-11T10:48:30;100236.44;;;3.38;nan
52719;BME280;38616;42.140;24.760;2024-01-11T10:51:00;100237.72;;;3.61;nan
52719;BME280;38616;42.140;24.760;2024-01-11T10:56:05;100221.56;;;3.36;nan
52719;BME280;38616;42.140;24.760;2024-01-11T10:58:32;100220.00;;;3.21;nan
52719;BME280;38616;42.140;24.760;2024-01-11T11:00:59;100215.47;;;3.22;nan
52719;BME280;38616;42.140;24.760;2024-01-11T11:03:26;100211.41;;;3.45;nan
52719;BME280;38616;42.140;24.760;2024-01-11T11:05:53;100211.16;;;3.46;nan
52719;BME280;38616;42.140;24.760;2024-01-11T11:08:22;100211.56;;;3.50;nan
52719;BME280;38616;42.140;24.760;2024-01-11T11:10:49;100203.00;;;3.34;nan
52719;BME280;38616;42.140;24.760;2024-01-11T11:13:17;100192.47;;;3.33;nan
52719;BME280;38616;42.140;24.760;2024-01-11T11:15:47;100188.91;;;3.64;nan
52719;BME280;38616;42.140;24.760;2024-01-11T11:18:14;100191.81;;;3.88;nan
52719;BME280;38616;42.140;24.760;2024-01-11T11:20:43;100186.50;;;3.81;nan
52719;BME280;38616;42.140;24.760;2024-01-11T11:23:10;100183.75;;;3.88;nan
52719;BME280;38616;42.140;24.760;2024-01-11T11:25:37;100181.50;;;3.85;nan
52719;BME280;38616;42.140;24.760;2024-01-11T11:28:04;100175.16;;;3.98;nan
52719;BME280;38616;42.140;24.760;2024-01-11T11:30:30;100163.50;;;4.04;nan
52719;BME280;38616;42.140;24.760;2024-01-11T11:32:56;100153.34;;;4.06;nan
52719;BME280;38616;42.140;24.760;2024-01-11T11:35:25;100156.88;;;4.07;nan
52719;BME280;38616;42.140;24.760;2024-01-11T11:37:57;100156.00;;;4.13;nan
52719;BME280;38616;42.140;24.760;2024-01-11T11:40:38;100149.72;;;4.19;nan
52719;BME280;38616;42.140;24.760;2024-01-11T11:43:10;100134.34;;;4.08;nan
52719;BME280;38616;42.140;24.760;2024-01-11T11:45:37;100133.03;;;4.10;nan
52719;BME280;38616;42.140;24.760;2024-01-11T11:51:10;100121.09;;;4.25;nan
52719;BME280;38616;42.140;24.760;2024-01-11T11:53:37;100106.56;;;4.44;nan
52719;BME280;38616;42.140;24.760;2024-01-11T11:56:03;100107.81;;;4.61;nan
52719;BME280;38616;42.140;24.760;2024-01-11T11:58:29;100102.97;;;4.51;nan
52719;BME280;38616;42.140;24.760;2024-01-11T12:00:57;100094.22;;;4.55;nan
52719;BME280;38616;42.140;24.760;2024-01-11T12:03:44;100086.28;;;4.61;nan
52719;BME280;38616;42.140;24.760;2024-01-11T12:06:20;100078.72;;;4.69;nan
52719;BME280;38616;42.140;24.760;2024-01-11T12:08:48;100065.88;;;4.83;nan
52719;BME280;38616;42.140;24.760;2024-01-11T12:11:20;100058.63;;;4.84;nan
52719;BME280;38616;42.140;24.760;2024-01-11T12:13:47;100058.72;;;4.77;nan
52719;BME280;38616;42.140;24.760;2024-01-11T12:16:14;100049.69;;;4.71;nan
52719;BME280;38616;42.140;24.760;2024-01-11T12:18:40;100049.31;;;4.68;nan
52719;BME280;38616;42.140;24.760;2024-01-11T12:21:07;100045.97;;;4.84;nan
52719;BME280;38616;42.140;24.760;2024-01-11T12:23:33;100050.31;;;4.85;nan
52719;BME280;38616;42.140;24.760;2024-01-11T12:26:03;100042.16;;;5.04;nan
52719;BME280;38616;42.140;24.760;2024-01-11T12:28:32;100040.72;;;4.90;nan
52719;BME280;38616;42.140;24.760;2024-01-11T12:30:58;100034.28;;;4.91;nan
52719;BME280;38616;42.140;24.760;2024-01-11T12:33:25;100035.91;;;4.92;nan
52719;BME280;38616;42.140;24.760;2024-01-11T12:35:51;100033.69;;;4.88;nan
52719;BME280;38616;42.140;24.760;2024-01-11T12:38:17;100027.25;;;5.01;nan
52719;BME280;38616;42.140;24.760;2024-01-11T12:40:42;100015.00;;;5.17;nan
52719;BME280;38616;42.140;24.760;2024-01-11T12:43:08;100015.09;;;5.11;nan
52719;BME280;38616;42.140;24.760;2024-01-11T12:45:36;100011.47;;;5.05;nan
52719;BME280;38616;42.140;24.760;2024-01-11T12:48:02;100005.75;;;5.13;nan
52719;BME280;38616;42.140;24.760;2024-01-11T12:50:29;100009.00;;;5.27;nan
52719;BME280;38616;42.140;24.760;2024-01-11T12:53:13;100009.34;;;5.31;nan
52719;BME280;38616;42.140;24.760;2024-01-11T12:56:02;100008.88;;;5.34;nan
52719;BME280;38616;42.140;24.760;2024-01-11T12:58:28;99999.03;;;5.40;nan
52719;BME280;38616;42.140;24.760;2024-01-11T13:00:54;100009.69;;;5.11;nan
52719;BME280;38616;42.140;24.760;2024-01-11T13:03:20;100000.69;;;5.29;nan
52719;BME280;38616;42.140;24.760;2024-01-11T13:05:46;99998.53;;;5.55;nan
52719;BME280;38616;42.140;24.760;2024-01-11T13:08:12;99994.22;;;5.54;nan
52719;BME280;38616;42.140;24.760;2024-01-11T13:10:37;99987.19;;;5.53;nan